sensor_id;sensor_type;location;lat;lon;timestamp;P1;durP1;ratioP1;P2;durP2;ratioP2
15331;SDS011;7766;51.534;6.722;2023-04-25T00:00:41;8.57;;;4.10;;
15331;SDS011;7766;51.534;6.722;2023-04-25T00:01:42;10.47;;;3.90;;
15331;SDS011;7766;51.534;6.722;2023-04-25T00:02:43;11.27;;;4.30;;
15331;SDS011;7766;51.534;6.722;2023-04-25T00:03:46;11.17;;;4.00;;
15331;SDS011;7766;51.534;6.722;2023-04-25T00:04:47;8.70;;;4.07;;
15331;SDS011;7766;51.534;6.722;2023-04-25T00:05:51;7.20;;;3.77;;
15331;SDS011;7766;51.534;6.722;2023-04-25T00:06:56;8.70;;;3.93;;
15331;SDS011;7766;51.534;6.722;2023-04-25T00:07:57;10.17;;;3.83;;
15331;SDS011;7766;51.534;6.722;2023-04-25T00:08:58;8.97;;;4.07;;
15331;SDS011;7766;51.534;6.722;2023-04-25T00:09:59;12.07;;;4.33;;
15331;SDS011;7766;51.534;6.722;2023-04-25T00:11:00;10.77;;;4.13;;
15331;SDS011;7766;51.534;6.722;2023-04-25T00:12:01;12.80;;;4.57;;
15331;SDS011;7766;51.534;6.722;2023-04-25T00:13:02;9.63;;;4.57;;
15331;SDS011;7766;51.534;6.722;2023-04-25T00:14:03;7.13;;;4.20;;
15331;SDS011;7766;51.534;6.722;2023-04-25T00:15:04;9.70;;;4.13;;
15331;SDS011;7766;51.534;6.722;2023-04-25T00:16:06;8.03;;;4.17;;
15331;SDS011;7766;51.534;6.722;2023-04-25T00:17:07;9.50;;;4.27;;
15331;SDS011;7766;51.534;6.722;2023-04-25T00:18:09;10.80;;;4.32;;
15331;SDS011;7766;51.534;6.722;2023-04-25T00:19:11;10.90;;;4.53;;
15331;SDS011;7766;51.534;6.722;2023-04-25T00:20:13;8.00;;;4.30;;
15331;SDS011;7766;51.534;6.722;2023-04-25T00:21:15;8.50;;;4.37;;
15331;SDS011;7766;51.534;6.722;2023-04-25T00:22:18;8.70;;;4.30;;
15331;SDS011;7766;51.534;6.722;2023-04-25T00:23:19;13.77;;;4.60;;
15331;SDS011;7766;51.534;6.722;2023-04-25T00:24:20;15.23;;;4.30;;
15331;SDS011;7766;51.534;6.722;2023-04-25T00:25:21;11.35;;;4.82;;
15331;SDS011;7766;51.534;6.722;2023-04-25T00:26:21;13.87;;;5.17;;
15331;SDS011;7766;51.534;6.722;2023-04-25T00:27:23;13.63;;;4.50;;
15331;SDS011;7766;51.534;6.722;2023-04-25T00:28:24;13.50;;;4.63;;
15331;SDS011;7766;51.534;6.722;2023-04-25T00:29:25;8.07;;;4.23;;
15331;SDS011;7766;51.534;6.722;2023-04-25T00:30:26;13.70;;;4.80;;
15331;SDS011;7766;51.534;6.722;2023-04-25T00:31:27;11.90;;;5.00;;
15331;SDS011;7766;51.534;6.722;2023-04-25T00:32:28;10.23;;;4.67;;
15331;SDS011;7766;51.534;6.722;2023-04-25T00:33:30;10.87;;;4.57;;
15331;SDS011;7766;51.534;6.722;2023-04-25T00:34:30;7.60;;;4.30;;
15331;SDS011;7766;51.534;6.722;2023-04-25T00:35:32;10.70;;;4.50;;
15331;SDS011;7766;51.534;6.722;2023-04-25T00:36:33;8.88;;;4.68;;
15331;SDS011;7766;51.534;6.722;2023-04-25T00:37:34;9.97;;;4.93;;
15331;SDS011;7766;51.534;6.722;2023-04-25T00:38:35;7.70;;;4.13;;
15331;SDS011;7766;51.534;6.722;2023-04-25T00:39:38;12.57;;;4.45;;
15331;SDS011;7766;51.534;6.722;2023-04-25T00:40:39;9.85;;;4.00;;
15331;SDS011;7766;51.534;6.722;2023-04-25T00:41:40;6.87;;;3.97;;
15331;SDS011;7766;51.534;6.722;2023-04-25T00:42:41;10.67;;;4.40;;
15331;SDS011;7766;51.534;6.722;2023-04-25T00:43:42;14.53;;;4.70;;
15331;SDS011;7766;51.534;6.722;2023-04-25T00:44:45;11.10;;;4.33;;
15331;SDS011;7766;51.534;6.722;2023-04-25T00:45:47;11.37;;;4.27;;
15331;SDS011;7766;51.534;6.722;2023-04-25T00:46:50;8.85;;;4.13;;
15331;SDS011;7766;51.534;6.722;2023-04-25T00:47:53;11.90;;;4.55;;
15331;SDS011;7766;51.534;6.722;2023-04-25T00:48:55;9.00;;;4.30;;
15331;SDS011;7766;51.534;6.722;2023-04-25T00:49:56;8.87;;;3.97;;
15331;SDS011;7766;51.534;6.722;2023-04-25T00:50:58;8.63;;;3.73;;
15331;SDS011;7766;51.534;6.722;2023-04-25T00:51:59;7.93;;;4.30;;
15331;SDS011;7766;51.534;6.722;2023-04-25T00:53:01;14.52;;;4.35;;
15331;SDS011;7766;51.534;6.722;2023-04-25T00:54:03;9.77;;;4.27;;
15331;SDS011;7766;51.534;6.722;2023-04-25T00:55:04;15.03;;;4.80;;
15331;SDS011;7766;51.534;6.722;2023-04-25T00:56:06;9.67;;;4.53;;
15331;SDS011;7766;51.534;6.722;2023-04-25T00:57:07;11.25;;;4.13;;
15331;SDS011;7766;51.534;6.722;2023-04-25T00:58:08;10.03;;;4.37;;
15331;SDS011;7766;51.534;6.722;2023-04-25T00:59:09;9.53;;;4.30;;
15331;SDS011;7766;51.534;6.722;2023-04-25T01:00:11;9.03;;;4.10;;
15331;SDS011;7766;51.534;6.722;2023-04-25T01:01:14;9.85;;;4.40;;
15331;SDS011;7766;51.534;6.722;2023-04-25T01:02:16;7.33;;;3.77;;
15331;SDS011;7766;51.534;6.722;2023-04-25T01:03:18;8.18;;;4.25;;
15331;SDS011;7766;51.534;6.722;2023-04-25T01:04:22;12.80;;;4.20;;
15331;SDS011;7766;51.534;6.722;2023-04-25T01:05:23;12.00;;;4.47;;
15331;SDS011;7766;51.534;6.722;2023-04-25T01:06:25;9.52;;;4.85;;
15331;SDS011;7766;51.534;6.722;2023-04-25T01:07:27;9.77;;;4.20;;
15331;SDS011;7766;51.534;6.722;2023-04-25T01:08:28;14.00;;;4.83;;
15331;SDS011;7766;51.534;6.722;2023-04-25T01:09:30;11.32;;;4.70;;
15331;SDS011;7766;51.534;6.722;2023-04-25T01:10:34;14.00;;;4.87;;
15331;SDS011;7766;51.534;6.722;2023-04-25T01:11:35;9.70;;;4.00;;
15331;SDS011;7766;51.534;6.722;2023-04-25T01:12:37;7.50;;;3.90;;
15331;SDS011;7766;51.534;6.722;2023-04-25T01:13:38;13.03;;;4.40;;
15331;SDS011;7766;51.534;6.722;2023-04-25T01:14:39;10.07;;;4.53;;
15331;SDS011;7766;51.534;6.722;2023-04-25T01:15:40;17.88;;;9.48;;
15331;SDS011;7766;51.534;6.722;2023-04-25T01:16:41;12.37;;;6.50;;
15331;SDS011;7766;51.534;6.722;2023-04-25T01:17:43;8.07;;;4.60;;
15331;SDS011;7766;51.534;6.722;2023-04-25T01:18:45;10.50;;;4.80;;
15331;SDS011;7766;51.534;6.722;2023-04-25T01:19:47;10.20;;;4.50;;
15331;SDS011;7766;51.534;6.722;2023-04-25T01:20:50;11.43;;;4.93;;
15331;SDS011;7766;51.534;6.722;2023-04-25T01:21:52;8.25;;;4.18;;
15331;SDS011;7766;51.534;6.722;2023-04-25T01:22:53;9.53;;;4.37;;
15331;SDS011;7766;51.534;6.722;2023-04-25T01:23:55;11.50;;;4.97;;
15331;SDS011;7766;51.534;6.722;2023-04-25T01:24:57;8.73;;;4.35;;
15331;SDS011;7766;51.534;6.722;2023-04-25T01:25:58;10.50;;;4.37;;
15331;SDS011;7766;51.534;6.722;2023-04-25T01:27:00;10.75;;;4.70;;
15331;SDS011;7766;51.534;6.722;2023-04-25T01:28:02;13.82;;;4.85;;
15331;SDS011;7766;51.534;6.722;2023-04-25T01:29:06;10.23;;;4.80;;
15331;SDS011;7766;51.534;6.722;2023-04-25T01:30:08;9.80;;;4.70;;
15331;SDS011;7766;51.534;6.722;2023-04-25T01:31:09;9.05;;;4.15;;
15331;SDS011;7766;51.534;6.722;2023-04-25T01:32:11;8.03;;;4.67;;
15331;SDS011;7766;51.534;6.722;2023-04-25T01:33:14;7.50;;;4.37;;
15331;SDS011;7766;51.534;6.722;2023-04-25T01:34:16;8.90;;;4.10;;
15331;SDS011;7766;51.534;6.722;2023-04-25T01:35:18;10.20;;;4.50;;
15331;SDS011;7766;51.534;6.722;2023-04-25T01:36:19;7.45;;;4.10;;
15331;SDS011;7766;51.534;6.722;2023-04-25T01:37:21;6.43;;;4.47;;
15331;SDS011;7766;51.534;6.722;2023-04-25T01:38:23;10.45;;;4.50;;
15331;SDS011;7766;51.534;6.722;2023-04-25T01:39:24;13.77;;;4.57;;
15331;SDS011;7766;51.534;6.722;2023-04-25T01:40:25;9.18;;;4.68;;
15331;SDS011;7766;51.534;6.722;2023-04-25T01:41:28;15.80;;;5.15;;
15331;SDS011;7766;51.534;6.722;2023-04-25T01:42:29;7.30;;;4.45;;
15331;SDS011;7766;51.534;6.722;2023-04-25T01:43:30;11.10;;;4.50;;
15331;SDS011;7766;51.534;6.722;2023-04-25T01:44:32;12.45;;;5.20;;
15331;SDS011;7766;51.534;6.722;2023-04-25T01:45:33;10.15;;;4.82;;
15331;SDS011;7766;51.534;6.722;2023-04-25T01:46:36;9.73;;;4.60;;
15331;SDS011;7766;51.534;6.722;2023-04-25T01:47:38;9.33;;;4.50;;
15331;SDS011;7766;51.534;6.722;2023-04-25T01:48:40;8.07;;;4.10;;
15331;SDS011;7766;51.534;6.722;2023-04-25T01:49:41;6.90;;;4.25;;
15331;SDS011;7766;51.534;6.722;2023-04-25T01:50:42;10.27;;;4.80;;
15331;SDS011;7766;51.534;6.722;2023-04-25T01:51:43;10.75;;;4.80;;
15331;SDS011;7766;51.534;6.722;2023-04-25T01:52:44;10.17;;;4.20;;
15331;SDS011;7766;51.534;6.722;2023-04-25T01:53:45;8.87;;;4.50;;
15331;SDS011;7766;51.534;6.722;2023-04-25T01:54:47;9.43;;;5.00;;
15331;SDS011;7766;51.534;6.722;2023-04-25T01:55:48;7.50;;;4.82;;
15331;SDS011;7766;51.534;6.722;2023-04-25T01:56:50;11.50;;;4.17;;
15331;SDS011;7766;51.534;6.722;2023-04-25T01:57:51;13.07;;;4.00;;
15331;SDS011;7766;51.534;6.722;2023-04-25T01:58:52;9.40;;;4.90;;
15331;SDS011;7766;51.534;6.722;2023-04-25T01:59:55;7.73;;;4.13;;
15331;SDS011;7766;51.534;6.722;2023-04-25T02:01:00;9.67;;;4.40;;
15331;SDS011;7766;51.534;6.722;2023-04-25T02:02:01;9.90;;;4.40;;
15331;SDS011;7766;51.534;6.722;2023-04-25T02:03:03;14.63;;;4.63;;
15331;SDS011;7766;51.534;6.722;2023-04-25T02:04:05;10.30;;;4.80;;
15331;SDS011;7766;51.534;6.722;2023-04-25T02:05:06;13.33;;;5.00;;
15331;SDS011;7766;51.534;6.722;2023-04-25T02:06:07;7.30;;;4.13;;
15331;SDS011;7766;51.534;6.722;2023-04-25T02:07:08;11.37;;;4.60;;
15331;SDS011;7766;51.534;6.722;2023-04-25T02:08:09;10.77;;;4.57;;
15331;SDS011;7766;51.534;6.722;2023-04-25T02:09:10;9.93;;;4.70;;
15331;SDS011;7766;51.534;6.722;2023-04-25T02:10:11;9.67;;;4.20;;
15331;SDS011;7766;51.534;6.722;2023-04-25T02:11:12;9.17;;;4.80;;
15331;SDS011;7766;51.534;6.722;2023-04-25T02:12:13;9.27;;;4.07;;
15331;SDS011;7766;51.534;6.722;2023-04-25T02:13:15;8.43;;;4.00;;
15331;SDS011;7766;51.534;6.722;2023-04-25T02:14:16;9.10;;;4.20;;
15331;SDS011;7766;51.534;6.722;2023-04-25T02:15:17;8.20;;;4.57;;
15331;SDS011;7766;51.534;6.722;2023-04-25T02:16:18;11.45;;;4.55;;
15331;SDS011;7766;51.534;6.722;2023-04-25T02:17:19;11.10;;;5.00;;
15331;SDS011;7766;51.534;6.722;2023-04-25T02:18:21;8.65;;;4.07;;
15331;SDS011;7766;51.534;6.722;2023-04-25T02:19:22;11.40;;;4.30;;
15331;SDS011;7766;51.534;6.722;2023-04-25T02:20:23;6.87;;;4.37;;
15331;SDS011;7766;51.534;6.722;2023-04-25T02:21:25;9.27;;;4.30;;
15331;SDS011;7766;51.534;6.722;2023-04-25T02:22:26;9.60;;;4.43;;
15331;SDS011;7766;51.534;6.722;2023-04-25T02:23:30;8.37;;;4.30;;
15331;SDS011;7766;51.534;6.722;2023-04-25T02:24:31;12.33;;;5.07;;
15331;SDS011;7766;51.534;6.722;2023-04-25T02:25:33;10.57;;;3.90;;
15331;SDS011;7766;51.534;6.722;2023-04-25T02:26:34;8.57;;;4.00;;
15331;SDS011;7766;51.534;6.722;2023-04-25T02:27:35;8.73;;;4.15;;
15331;SDS011;7766;51.534;6.722;2023-04-25T02:28:36;10.83;;;3.93;;
15331;SDS011;7766;51.534;6.722;2023-04-25T02:29:37;11.47;;;4.60;;
15331;SDS011;7766;51.534;6.722;2023-04-25T02:30:38;10.43;;;4.57;;
15331;SDS011;7766;51.534;6.722;2023-04-25T02:31:40;13.00;;;4.22;;
15331;SDS011;7766;51.534;6.722;2023-04-25T02:32:41;9.75;;;4.20;;
15331;SDS011;7766;51.534;6.722;2023-04-25T02:33:42;11.18;;;4.90;;
15331;SDS011;7766;51.534;6.722;2023-04-25T02:34:44;12.88;;;4.85;;
15331;SDS011;7766;51.534;6.722;2023-04-25T02:35:45;7.97;;;4.38;;
15331;SDS011;7766;51.534;6.722;2023-04-25T02:36:47;11.45;;;4.85;;
15331;SDS011;7766;51.534;6.722;2023-04-25T02:37:49;10.38;;;4.13;;
15331;SDS011;7766;51.534;6.722;2023-04-25T02:38:50;12.63;;;4.60;;
15331;SDS011;7766;51.534;6.722;2023-04-25T02:39:51;9.97;;;4.80;;
15331;SDS011;7766;51.534;6.722;2023-04-25T02:40:52;11.83;;;4.13;;
15331;SDS011;7766;51.534;6.722;2023-04-25T02:41:53;9.80;;;4.87;;
15331;SDS011;7766;51.534;6.722;2023-04-25T02:42:54;11.53;;;4.90;;
15331;SDS011;7766;51.534;6.722;2023-04-25T02:43:55;13.50;;;4.93;;
15331;SDS011;7766;51.534;6.722;2023-04-25T02:44:57;15.20;;;4.30;;
15331;SDS011;7766;51.534;6.722;2023-04-25T02:45:58;10.23;;;4.35;;
15331;SDS011;7766;51.534;6.722;2023-04-25T02:46:59;9.47;;;4.20;;
15331;SDS011;7766;51.534;6.722;2023-04-25T02:48:00;12.50;;;4.25;;
15331;SDS011;7766;51.534;6.722;2023-04-25T02:49:01;9.93;;;4.20;;
15331;SDS011;7766;51.534;6.722;2023-04-25T02:50:03;8.85;;;4.20;;
15331;SDS011;7766;51.534;6.722;2023-04-25T02:51:04;13.23;;;4.72;;
15331;SDS011;7766;51.534;6.722;2023-04-25T02:52:06;8.07;;;4.10;;
15331;SDS011;7766;51.534;6.722;2023-04-25T02:53:07;15.70;;;4.57;;
15331;SDS011;7766;51.534;6.722;2023-04-25T02:54:08;8.43;;;4.20;;
15331;SDS011;7766;51.534;6.722;2023-04-25T02:55:09;12.63;;;4.37;;
15331;SDS011;7766;51.534;6.722;2023-04-25T02:56:10;9.73;;;4.28;;
15331;SDS011;7766;51.534;6.722;2023-04-25T02:57:11;9.67;;;3.97;;
15331;SDS011;7766;51.534;6.722;2023-04-25T02:58:12;8.93;;;4.10;;
15331;SDS011;7766;51.534;6.722;2023-04-25T02:59:13;10.63;;;4.30;;
15331;SDS011;7766;51.534;6.722;2023-04-25T03:00:14;9.07;;;4.33;;
15331;SDS011;7766;51.534;6.722;2023-04-25T03:01:15;9.30;;;3.90;;
15331;SDS011;7766;51.534;6.722;2023-04-25T03:02:16;9.20;;;3.70;;
15331;SDS011;7766;51.534;6.722;2023-04-25T03:03:17;11.00;;;4.20;;
15331;SDS011;7766;51.534;6.722;2023-04-25T03:04:21;13.43;;;3.78;;
15331;SDS011;7766;51.534;6.722;2023-04-25T03:05:23;10.13;;;3.77;;
15331;SDS011;7766;51.534;6.722;2023-04-25T03:06:24;11.10;;;4.53;;
15331;SDS011;7766;51.534;6.722;2023-04-25T03:07:25;11.07;;;4.67;;
15331;SDS011;7766;51.534;6.722;2023-04-25T03:08:26;13.40;;;4.93;;
15331;SDS011;7766;51.534;6.722;2023-04-25T03:09:32;10.70;;;4.60;;
15331;SDS011;7766;51.534;6.722;2023-04-25T03:10:33;8.95;;;4.00;;
15331;SDS011;7766;51.534;6.722;2023-04-25T03:11:34;10.67;;;5.30;;
15331;SDS011;7766;51.534;6.722;2023-04-25T03:12:36;12.18;;;4.70;;
15331;SDS011;7766;51.534;6.722;2023-04-25T03:13:37;14.25;;;4.82;;
15331;SDS011;7766;51.534;6.722;2023-04-25T03:14:38;12.70;;;5.10;;
15331;SDS011;7766;51.534;6.722;2023-04-25T03:15:39;8.77;;;4.63;;
15331;SDS011;7766;51.534;6.722;2023-04-25T03:16:40;14.33;;;5.27;;
15331;SDS011;7766;51.534;6.722;2023-04-25T03:17:41;8.97;;;4.03;;
15331;SDS011;7766;51.534;6.722;2023-04-25T03:18:42;13.23;;;5.33;;
15331;SDS011;7766;51.534;6.722;2023-04-25T03:19:43;10.50;;;5.10;;
15331;SDS011;7766;51.534;6.722;2023-04-25T03:20:44;12.67;;;4.33;;
15331;SDS011;7766;51.534;6.722;2023-04-25T03:21:45;13.40;;;5.30;;
15331;SDS011;7766;51.534;6.722;2023-04-25T03:22:46;10.43;;;4.40;;
15331;SDS011;7766;51.534;6.722;2023-04-25T03:23:47;12.13;;;4.43;;
15331;SDS011;7766;51.534;6.722;2023-04-25T03:24:48;10.55;;;4.65;;
15331;SDS011;7766;51.534;6.722;2023-04-25T03:25:49;12.07;;;4.53;;
15331;SDS011;7766;51.534;6.722;2023-04-25T03:26:50;12.37;;;4.57;;
15331;SDS011;7766;51.534;6.722;2023-04-25T03:27:51;10.50;;;5.20;;
15331;SDS011;7766;51.534;6.722;2023-04-25T03:28:52;10.50;;;4.37;;
15331;SDS011;7766;51.534;6.722;2023-04-25T03:29:53;11.53;;;4.70;;
15331;SDS011;7766;51.534;6.722;2023-04-25T03:30:54;11.00;;;4.33;;
15331;SDS011;7766;51.534;6.722;2023-04-25T03:31:55;12.50;;;5.20;;
15331;SDS011;7766;51.534;6.722;2023-04-25T03:32:56;12.67;;;5.60;;
15331;SDS011;7766;51.534;6.722;2023-04-25T03:33:57;10.97;;;4.70;;
15331;SDS011;7766;51.534;6.722;2023-04-25T03:34:58;10.73;;;4.87;;
15331;SDS011;7766;51.534;6.722;2023-04-25T03:35:59;13.43;;;5.00;;
15331;SDS011;7766;51.534;6.722;2023-04-25T03:37:00;10.87;;;4.20;;
15331;SDS011;7766;51.534;6.722;2023-04-25T03:38:01;7.70;;;4.57;;
15331;SDS011;7766;51.534;6.722;2023-04-25T03:39:02;11.43;;;4.63;;
15331;SDS011;7766;51.534;6.722;2023-04-25T03:40:03;14.87;;;4.87;;
15331;SDS011;7766;51.534;6.722;2023-04-25T03:41:05;10.73;;;5.15;;
15331;SDS011;7766;51.534;6.722;2023-04-25T03:42:06;12.00;;;5.43;;
15331;SDS011;7766;51.534;6.722;2023-04-25T03:43:07;11.03;;;4.87;;
15331;SDS011;7766;51.534;6.722;2023-04-25T03:44:08;11.13;;;4.80;;
15331;SDS011;7766;51.534;6.722;2023-04-25T03:45:09;10.88;;;5.03;;
15331;SDS011;7766;51.534;6.722;2023-04-25T03:46:11;11.82;;;4.97;;
15331;SDS011;7766;51.534;6.722;2023-04-25T03:47:12;10.73;;;5.28;;
15331;SDS011;7766;51.534;6.722;2023-04-25T03:48:12;11.97;;;4.63;;
15331;SDS011;7766;51.534;6.722;2023-04-25T03:49:13;11.10;;;4.82;;
15331;SDS011;7766;51.534;6.722;2023-04-25T03:50:14;19.90;;;6.13;;
15331;SDS011;7766;51.534;6.722;2023-04-25T03:51:15;14.90;;;5.10;;
15331;SDS011;7766;51.534;6.722;2023-04-25T03:52:16;13.00;;;5.05;;
15331;SDS011;7766;51.534;6.722;2023-04-25T03:53:18;13.38;;;5.18;;
15331;SDS011;7766;51.534;6.722;2023-04-25T03:54:18;14.47;;;5.07;;
15331;SDS011;7766;51.534;6.722;2023-04-25T03:55:20;9.73;;;4.60;;
15331;SDS011;7766;51.534;6.722;2023-04-25T03:56:21;14.35;;;5.43;;
15331;SDS011;7766;51.534;6.722;2023-04-25T03:57:22;11.98;;;4.38;;
15331;SDS011;7766;51.534;6.722;2023-04-25T03:58:23;16.33;;;5.23;;
15331;SDS011;7766;51.534;6.722;2023-04-25T03:59:24;16.60;;;5.25;;
15331;SDS011;7766;51.534;6.722;2023-04-25T04:00:26;13.77;;;5.07;;
15331;SDS011;7766;51.534;6.722;2023-04-25T04:01:27;15.83;;;5.17;;
15331;SDS011;7766;51.534;6.722;2023-04-25T04:02:28;12.45;;;4.78;;
15331;SDS011;7766;51.534;6.722;2023-04-25T04:03:29;13.45;;;4.90;;
15331;SDS011;7766;51.534;6.722;2023-04-25T04:04:30;11.88;;;5.57;;
15331;SDS011;7766;51.534;6.722;2023-04-25T04:05:31;13.50;;;4.30;;
15331;SDS011;7766;51.534;6.722;2023-04-25T04:06:32;14.10;;;5.27;;
15331;SDS011;7766;51.534;6.722;2023-04-25T04:07:33;12.40;;;5.53;;
15331;SDS011;7766;51.534;6.722;2023-04-25T04:08:39;10.55;;;4.80;;
15331;SDS011;7766;51.534;6.722;2023-04-25T04:09:40;11.50;;;5.47;;
15331;SDS011;7766;51.534;6.722;2023-04-25T04:10:41;10.20;;;4.90;;
15331;SDS011;7766;51.534;6.722;2023-04-25T04:11:42;13.80;;;5.53;;
15331;SDS011;7766;51.534;6.722;2023-04-25T04:12:43;17.83;;;5.13;;
15331;SDS011;7766;51.534;6.722;2023-04-25T04:13:44;10.17;;;4.40;;
15331;SDS011;7766;51.534;6.722;2023-04-25T04:14:45;14.87;;;4.87;;
15331;SDS011;7766;51.534;6.722;2023-04-25T04:15:46;16.53;;;5.93;;
15331;SDS011;7766;51.534;6.722;2023-04-25T04:16:47;12.13;;;4.17;;
15331;SDS011;7766;51.534;6.722;2023-04-25T04:17:48;10.68;;;4.88;;
15331;SDS011;7766;51.534;6.722;2023-04-25T04:18:49;14.77;;;5.33;;
15331;SDS011;7766;51.534;6.722;2023-04-25T04:19:50;16.13;;;5.47;;
15331;SDS011;7766;51.534;6.722;2023-04-25T04:20:51;13.63;;;5.10;;
15331;SDS011;7766;51.534;6.722;2023-04-25T04:21:52;13.53;;;6.10;;
15331;SDS011;7766;51.534;6.722;2023-04-25T04:22:53;11.70;;;5.70;;
15331;SDS011;7766;51.534;6.722;2023-04-25T04:23:54;19.58;;;6.32;;
15331;SDS011;7766;51.534;6.722;2023-04-25T04:24:57;11.50;;;5.60;;
15331;SDS011;7766;51.534;6.722;2023-04-25T04:25:58;17.80;;;5.30;;
15331;SDS011;7766;51.534;6.722;2023-04-25T04:27:00;13.60;;;5.13;;
15331;SDS011;7766;51.534;6.722;2023-04-25T04:28:01;16.08;;;5.07;;
15331;SDS011;7766;51.534;6.722;2023-04-25T04:29:02;15.97;;;5.27;;
15331;SDS011;7766;51.534;6.722;2023-04-25T04:30:03;15.77;;;5.47;;
15331;SDS011;7766;51.534;6.722;2023-04-25T04:31:05;14.32;;;5.18;;
15331;SDS011;7766;51.534;6.722;2023-04-25T04:32:07;14.07;;;5.20;;
15331;SDS011;7766;51.534;6.722;2023-04-25T04:33:08;9.35;;;4.88;;
15331;SDS011;7766;51.534;6.722;2023-04-25T04:34:09;12.70;;;5.28;;
15331;SDS011;7766;51.534;6.722;2023-04-25T04:35:10;14.30;;;5.57;;
15331;SDS011;7766;51.534;6.722;2023-04-25T04:36:11;12.57;;;5.43;;
15331;SDS011;7766;51.534;6.722;2023-04-25T04:37:12;14.38;;;5.43;;
15331;SDS011;7766;51.534;6.722;2023-04-25T04:38:14;15.15;;;4.93;;
15331;SDS011;7766;51.534;6.722;2023-04-25T04:39:15;14.53;;;5.53;;
15331;SDS011;7766;51.534;6.722;2023-04-25T04:40:16;18.77;;;5.85;;
15331;SDS011;7766;51.534;6.722;2023-04-25T04:41:18;12.43;;;5.70;;
15331;SDS011;7766;51.534;6.722;2023-04-25T04:42:19;15.52;;;5.90;;
15331;SDS011;7766;51.534;6.722;2023-04-25T04:43:21;11.82;;;5.45;;
15331;SDS011;7766;51.534;6.722;2023-04-25T04:44:23;19.75;;;5.93;;
15331;SDS011;7766;51.534;6.722;2023-04-25T04:45:25;16.13;;;5.78;;
15331;SDS011;7766;51.534;6.722;2023-04-25T04:46:27;13.95;;;5.22;;
15331;SDS011;7766;51.534;6.722;2023-04-25T04:47:28;11.90;;;5.07;;
15331;SDS011;7766;51.534;6.722;2023-04-25T04:48:33;9.95;;;4.82;;
15331;SDS011;7766;51.534;6.722;2023-04-25T04:49:34;15.85;;;5.70;;
15331;SDS011;7766;51.534;6.722;2023-04-25T04:50:36;13.90;;;5.22;;
15331;SDS011;7766;51.534;6.722;2023-04-25T04:51:38;18.42;;;5.78;;
15331;SDS011;7766;51.534;6.722;2023-04-25T04:52:44;14.85;;;5.60;;
15331;SDS011;7766;51.534;6.722;2023-04-25T04:53:45;15.57;;;5.60;;
15331;SDS011;7766;51.534;6.722;2023-04-25T04:54:46;11.43;;;5.53;;
15331;SDS011;7766;51.534;6.722;2023-04-25T04:55:47;11.88;;;5.32;;
15331;SDS011;7766;51.534;6.722;2023-04-25T04:56:48;15.63;;;6.15;;
15331;SDS011;7766;51.534;6.722;2023-04-25T04:57:50;14.65;;;5.70;;
15331;SDS011;7766;51.534;6.722;2023-04-25T04:58:51;11.43;;;5.13;;
15331;SDS011;7766;51.534;6.722;2023-04-25T04:59:52;19.35;;;5.75;;
15331;SDS011;7766;51.534;6.722;2023-04-25T05:00:53;21.38;;;6.55;;
15331;SDS011;7766;51.534;6.722;2023-04-25T05:01:55;10.88;;;5.45;;
15331;SDS011;7766;51.534;6.722;2023-04-25T05:02:56;13.83;;;5.63;;
15331;SDS011;7766;51.534;6.722;2023-04-25T05:03:57;17.10;;;5.53;;
15331;SDS011;7766;51.534;6.722;2023-04-25T05:05:00;11.93;;;5.70;;
15331;SDS011;7766;51.534;6.722;2023-04-25T05:06:02;19.08;;;6.00;;
15331;SDS011;7766;51.534;6.722;2023-04-25T05:07:03;19.63;;;6.32;;
15331;SDS011;7766;51.534;6.722;2023-04-25T05:08:04;17.48;;;6.47;;
15331;SDS011;7766;51.534;6.722;2023-04-25T05:09:05;13.50;;;5.80;;
15331;SDS011;7766;51.534;6.722;2023-04-25T05:10:07;17.58;;;5.97;;
15331;SDS011;7766;51.534;6.722;2023-04-25T05:11:08;12.48;;;5.22;;
15331;SDS011;7766;51.534;6.722;2023-04-25T05:12:10;15.02;;;6.25;;
15331;SDS011;7766;51.534;6.722;2023-04-25T05:13:11;14.32;;;5.93;;
15331;SDS011;7766;51.534;6.722;2023-04-25T05:14:12;17.53;;;6.17;;
15331;SDS011;7766;51.534;6.722;2023-04-25T05:15:13;12.07;;;5.43;;
15331;SDS011;7766;51.534;6.722;2023-04-25T05:16:14;16.75;;;6.32;;
15331;SDS011;7766;51.534;6.722;2023-04-25T05:17:15;11.00;;;6.07;;
15331;SDS011;7766;51.534;6.722;2023-04-25T05:18:16;15.18;;;5.50;;
15331;SDS011;7766;51.534;6.722;2023-04-25T05:19:17;16.33;;;6.03;;
15331;SDS011;7766;51.534;6.722;2023-04-25T05:20:18;13.23;;;5.30;;
15331;SDS011;7766;51.534;6.722;2023-04-25T05:21:19;13.43;;;5.15;;
15331;SDS011;7766;51.534;6.722;2023-04-25T05:22:20;19.47;;;5.93;;
15331;SDS011;7766;51.534;6.722;2023-04-25T05:23:22;17.58;;;5.40;;
15331;SDS011;7766;51.534;6.722;2023-04-25T05:24:23;11.82;;;4.97;;
15331;SDS011;7766;51.534;6.722;2023-04-25T05:25:24;18.52;;;5.75;;
15331;SDS011;7766;51.534;6.722;2023-04-25T05:26:25;10.77;;;5.30;;
15331;SDS011;7766;51.534;6.722;2023-04-25T05:27:30;16.30;;;5.75;;
15331;SDS011;7766;51.534;6.722;2023-04-25T05:28:31;15.53;;;5.73;;
15331;SDS011;7766;51.534;6.722;2023-04-25T05:29:32;13.43;;;5.67;;
15331;SDS011;7766;51.534;6.722;2023-04-25T05:30:34;13.82;;;5.82;;
15331;SDS011;7766;51.534;6.722;2023-04-25T05:31:35;13.13;;;5.20;;
15331;SDS011;7766;51.534;6.722;2023-04-25T05:32:36;15.18;;;5.63;;
15331;SDS011;7766;51.534;6.722;2023-04-25T05:33:37;15.10;;;5.38;;
15331;SDS011;7766;51.534;6.722;2023-04-25T05:34:38;18.33;;;5.73;;
15331;SDS011;7766;51.534;6.722;2023-04-25T05:35:39;15.85;;;5.65;;
15331;SDS011;7766;51.534;6.722;2023-04-25T05:36:41;16.10;;;6.10;;
15331;SDS011;7766;51.534;6.722;2023-04-25T05:37:42;11.82;;;5.70;;
15331;SDS011;7766;51.534;6.722;2023-04-25T05:38:43;14.48;;;5.05;;
15331;SDS011;7766;51.534;6.722;2023-04-25T05:39:44;14.70;;;5.17;;
15331;SDS011;7766;51.534;6.722;2023-04-25T05:40:45;15.13;;;4.97;;
15331;SDS011;7766;51.534;6.722;2023-04-25T05:41:46;14.45;;;5.43;;
15331;SDS011;7766;51.534;6.722;2023-04-25T05:42:46;14.80;;;5.70;;
15331;SDS011;7766;51.534;6.722;2023-04-25T05:43:47;16.53;;;4.77;;
15331;SDS011;7766;51.534;6.722;2023-04-25T05:44:49;13.25;;;4.93;;
15331;SDS011;7766;51.534;6.722;2023-04-25T05:45:50;10.98;;;4.60;;
15331;SDS011;7766;51.534;6.722;2023-04-25T05:46:51;10.53;;;5.23;;
15331;SDS011;7766;51.534;6.722;2023-04-25T05:47:52;9.50;;;4.65;;
15331;SDS011;7766;51.534;6.722;2023-04-25T05:48:53;9.63;;;5.18;;
15331;SDS011;7766;51.534;6.722;2023-04-25T05:49:54;16.47;;;5.20;;
15331;SDS011;7766;51.534;6.722;2023-04-25T05:50:55;13.97;;;5.30;;
15331;SDS011;7766;51.534;6.722;2023-04-25T05:51:56;10.15;;;4.60;;
15331;SDS011;7766;51.534;6.722;2023-04-25T05:52:57;13.63;;;5.05;;
15331;SDS011;7766;51.534;6.722;2023-04-25T05:53:58;12.85;;;4.85;;
15331;SDS011;7766;51.534;6.722;2023-04-25T05:54:59;13.97;;;5.70;;
15331;SDS011;7766;51.534;6.722;2023-04-25T05:56:00;11.80;;;4.65;;
15331;SDS011;7766;51.534;6.722;2023-04-25T05:57:01;13.00;;;5.10;;
15331;SDS011;7766;51.534;6.722;2023-04-25T05:58:02;9.05;;;4.53;;
15331;SDS011;7766;51.534;6.722;2023-04-25T05:59:05;10.48;;;4.45;;
15331;SDS011;7766;51.534;6.722;2023-04-25T06:00:06;13.35;;;5.00;;
15331;SDS011;7766;51.534;6.722;2023-04-25T06:01:09;12.15;;;4.38;;
15331;SDS011;7766;51.534;6.722;2023-04-25T06:02:10;10.37;;;4.70;;
15331;SDS011;7766;51.534;6.722;2023-04-25T06:03:11;11.60;;;3.90;;
15331;SDS011;7766;51.534;6.722;2023-04-25T06:04:14;14.50;;;4.40;;
15331;SDS011;7766;51.534;6.722;2023-04-25T06:05:15;13.73;;;4.43;;
15331;SDS011;7766;51.534;6.722;2023-04-25T06:06:16;10.43;;;4.30;;
15331;SDS011;7766;51.534;6.722;2023-04-25T06:07:17;11.57;;;4.13;;
15331;SDS011;7766;51.534;6.722;2023-04-25T06:08:19;8.43;;;4.45;;
15331;SDS011;7766;51.534;6.722;2023-04-25T06:09:20;10.65;;;4.53;;
15331;SDS011;7766;51.534;6.722;2023-04-25T06:10:22;13.57;;;4.30;;
15331;SDS011;7766;51.534;6.722;2023-04-25T06:11:23;10.63;;;4.18;;